createdAt,value
2022-10-21T00:04:19.521Z,2.50
2022-10-21T00:09:22.107Z,2.50
2022-10-21T00:14:24.843Z,2.50
2022-10-21T00:19:27.189Z,2.30
2022-10-21T00:24:29.648Z,2.40
2022-10-21T00:29:32.022Z,2.40
2022-10-21T00:34:35.264Z,2.40
2022-10-21T00:39:38.420Z,2.40
2022-10-21T00:44:41.992Z,2.30
2022-10-21T00:49:57.046Z,2.30
2022-10-21T00:55:02.534Z,2.40
2022-10-21T01:00:06.429Z,2.40
2022-10-21T01:05:11.143Z,2.30
2022-10-21T01:10:13.821Z,2.30
2022-10-21T01:15:30.360Z,2.20
2022-10-21T01:21:00.611Z,2.20
2022-10-21T01:26:12.435Z,2.30
2022-10-21T01:31:51.532Z,2.20
2022-10-21T01:37:11.024Z,2.30
2022-10-21T01:42:28.502Z,2.20
2022-10-21T01:47:38.544Z,2.20
2022-10-21T01:52:45.250Z,2.20
2022-10-21T01:57:56.101Z,2.20
2022-10-21T02:03:00.933Z,2.20
2022-10-21T02:08:04.284Z,2.20
2022-10-21T02:13:10.942Z,2.20
2022-10-21T02:18:25.058Z,2.10
2022-10-21T02:23:44.961Z,2.00
2022-10-21T02:28:48.579Z,2.10
2022-10-21T02:33:59.844Z,2.00
2022-10-21T02:39:12.665Z,2.00
2022-10-21T02:44:16.214Z,2.00
2022-10-21T02:49:18.669Z,2.00
2022-10-21T02:54:21.662Z,2.00
2022-10-21T02:59:24.098Z,2.00
2022-10-21T03:04:26.590Z,2.00
2022-10-21T03:09:28.961Z,2.00
2022-10-21T03:14:31.474Z,2.00
2022-10-21T03:19:34.028Z,1.90
2022-10-21T03:24:36.578Z,2.00
2022-10-21T03:29:38.995Z,1.90
2022-10-21T03:34:41.641Z,1.80
2022-10-21T03:39:44.166Z,1.90
2022-10-21T03:44:46.766Z,1.90
2022-10-21T03:49:49.174Z,1.80
2022-10-21T03:54:51.697Z,1.70
2022-10-21T03:59:54.115Z,1.90
2022-10-21T04:04:56.622Z,2.00
2022-10-21T04:09:59.108Z,2.10
2022-10-21T04:15:01.706Z,2.10
2022-10-21T04:20:04.564Z,2.20
2022-10-21T04:25:07.369Z,2.20
2022-10-21T04:30:11.448Z,2.20
2022-10-21T04:35:13.922Z,2.30
2022-10-21T04:40:16.687Z,2.30
2022-10-21T04:45:19.155Z,2.30
2022-10-21T04:50:21.795Z,2.30
2022-10-21T04:55:24.265Z,2.20
2022-10-21T05:00:26.798Z,2.10
2022-10-21T05:05:29.342Z,2.10
2022-10-21T05:10:32.031Z,2.00
2022-10-21T05:15:34.727Z,2.00
2022-10-21T05:20:37.216Z,2.10
2022-10-21T05:25:39.678Z,2.00
2022-10-21T05:36:05.196Z,2.10
2022-10-21T05:41:07.569Z,2.40
2022-10-21T05:46:10.173Z,3.70
2022-10-21T05:51:12.688Z,2.70
2022-10-21T05:56:15.114Z,2.90
2022-10-21T06:01:17.787Z,3.10
2022-10-21T06:06:20.468Z,3.20
2022-10-21T06:11:23.038Z,3.40
2022-10-21T06:16:25.556Z,3.50
2022-10-21T06:21:28.228Z,3.60
2022-10-21T06:26:33.288Z,3.70
2022-10-21T06:31:38.951Z,3.80
2022-10-21T06:36:41.524Z,4.10
2022-10-21T06:41:44.034Z,4.30
2022-10-21T06:46:51.372Z,4.50
2022-10-21T06:51:53.878Z,4.70
2022-10-21T06:56:56.399Z,4.80
2022-10-21T07:02:00.539Z,4.90
2022-10-21T07:07:03.972Z,5.00
2022-10-21T07:12:06.705Z,5.10
2022-10-21T07:17:09.235Z,5.40
2022-10-21T07:22:11.635Z,5.70
2022-10-21T07:27:14.230Z,6.00
2022-10-21T07:32:16.821Z,6.30
2022-10-21T07:37:19.216Z,6.20
2022-10-21T07:42:22.361Z,6.20
2022-10-21T07:47:25.696Z,6.40
2022-10-21T07:52:28.481Z,6.60
2022-10-21T07:57:31.048Z,6.90
2022-10-21T08:02:33.546Z,6.90
2022-10-21T08:07:36.026Z,7.00
2022-10-21T08:12:38.951Z,7.20
2022-10-21T08:17:41.736Z,7.40
2022-10-21T08:22:44.224Z,7.60
2022-10-21T08:27:46.680Z,8.00
2022-10-21T08:32:49.313Z,8.50
2022-10-21T08:37:52.526Z,9.00
2022-10-21T08:42:55.188Z,9.50
2022-10-21T08:48:03.158Z,10.10
2022-10-21T08:53:24.726Z,11.40
2022-10-21T08:58:27.446Z,10.50
2022-10-21T09:03:59.618Z,10.50
2022-10-21T09:09:11.674Z,10.60
2022-10-21T09:14:43.739Z,10.50
2022-10-21T09:20:43.419Z,10.60
2022-10-21T09:25:54.916Z,10.60
2022-10-21T09:31:17.233Z,10.80
2022-10-21T09:36:33.481Z,11.10
2022-10-21T09:41:45.650Z,11.20
2022-10-21T09:46:50.129Z,11.30
2022-10-21T09:51:53.733Z,11.30
2022-10-21T09:57:13.121Z,11.40
2022-10-21T10:02:16.486Z,11.50
2022-10-21T10:07:35.828Z,11.50
2022-10-21T10:12:39.370Z,11.70
2022-10-21T10:17:42.027Z,11.70
2022-10-21T10:22:48.091Z,11.50
2022-10-21T10:28:04.382Z,11.60
2022-10-21T10:33:10.330Z,11.80
2022-10-21T10:38:39.792Z,11.90
2022-10-21T10:43:46.043Z,12.00
2022-10-21T10:48:51.598Z,12.00
2022-10-21T10:54:17.900Z,12.10
2022-10-21T10:59:23.416Z,12.00
2022-10-21T11:04:39.320Z,12.10
2022-10-21T11:09:42.282Z,12.10
2022-10-21T11:14:48.363Z,12.30
2022-10-21T11:20:12.547Z,12.50
2022-10-21T11:25:43.434Z,12.50
2022-10-21T11:31:28.004Z,12.30
2022-10-21T11:37:02.618Z,12.10
2022-10-21T11:42:22.512Z,12.10
2022-10-21T11:47:32.472Z,12.10
2022-10-21T11:52:58.006Z,12.10
2022-10-21T11:58:25.090Z,12.10
2022-10-21T12:03:54.997Z,12.10
2022-10-21T12:09:05.855Z,12.10
2022-10-21T12:14:33.926Z,12.20
2022-10-21T12:19:36.906Z,12.10
2022-10-21T12:24:58.719Z,12.20
2022-10-21T12:30:17.114Z,12.20
2022-10-21T12:35:28.898Z,12.20
2022-10-21T12:40:33.161Z,12.40
2022-10-21T12:45:38.107Z,12.80
2022-10-21T12:50:41.591Z,13.00
2022-10-21T12:55:54.556Z,12.70
2022-10-21T13:00:58.375Z,12.60
2022-10-21T13:06:06.735Z,12.60
2022-10-21T13:11:09.074Z,12.60
2022-10-21T13:16:20.721Z,12.50
2022-10-21T13:21:29.647Z,12.30
2022-10-21T13:26:32.661Z,12.10
2022-10-21T13:31:36.938Z,11.90
2022-10-21T13:36:43.694Z,11.90
2022-10-21T13:41:46.231Z,11.70
2022-10-21T13:46:48.586Z,11.60
2022-10-21T13:51:53.049Z,11.50
2022-10-21T13:56:55.600Z,11.30
2022-10-21T14:01:58.343Z,11.10
2022-10-21T14:07:08.137Z,10.90
2022-10-21T14:12:35.807Z,10.70
2022-10-21T14:17:42.655Z,10.70
2022-10-21T14:22:50.229Z,10.60
2022-10-21T14:27:53.670Z,10.60
2022-10-21T14:32:59.363Z,10.50
2022-10-21T14:38:04.743Z,10.50
2022-10-21T14:43:27.114Z,10.40
2022-10-21T14:48:34.879Z,10.00
2022-10-21T14:53:49.989Z,10.30
2022-10-21T14:58:56.484Z,10.30
2022-10-21T15:04:01.091Z,10.30
2022-10-21T15:09:09.696Z,10.20
2022-10-21T15:14:15.526Z,10.20
2022-10-21T15:19:43.145Z,10.00
2022-10-21T15:24:46.314Z,10.00
2022-10-21T15:29:49.190Z,9.90
2022-10-21T15:34:53.153Z,9.80
2022-10-21T15:39:56.228Z,9.70
2022-10-21T15:44:58.946Z,9.60
2022-10-21T15:50:01.574Z,9.50
2022-10-21T15:55:05.012Z,9.30
2022-10-21T16:00:24.117Z,9.10
2022-10-21T16:05:27.625Z,9.20
2022-10-21T16:10:35.072Z,9.20
2022-10-21T16:15:37.924Z,9.20
2022-10-21T16:20:42.277Z,9.30
2022-10-21T16:25:45.016Z,9.30
2022-10-21T16:30:47.926Z,9.20
2022-10-21T16:35:50.696Z,9.10
2022-10-21T16:40:53.574Z,9.10
2022-10-21T16:45:56.291Z,9.10
2022-10-21T16:50:59.177Z,9.00
2022-10-21T16:56:03.022Z,8.90
2022-10-21T17:01:07.077Z,8.80
2022-10-21T17:06:21.956Z,8.80
2022-10-21T17:11:36.161Z,8.90
2022-10-21T17:16:40.234Z,9.00
2022-10-21T17:21:43.800Z,9.00
2022-10-21T17:26:47.359Z,9.10
2022-10-21T17:31:50.292Z,9.20
2022-10-21T17:36:53.072Z,9.20
2022-10-21T17:41:56.165Z,9.40
2022-10-21T17:46:59.191Z,9.40
2022-10-21T17:52:01.991Z,9.40
2022-10-21T17:57:05.078Z,9.40
2022-10-21T18:02:09.160Z,9.50
2022-10-21T18:07:13.238Z,9.50
2022-10-21T18:12:17.109Z,9.60
2022-10-21T18:17:20.476Z,9.60
2022-10-21T18:22:23.487Z,9.70
2022-10-21T18:27:27.075Z,9.70
2022-10-21T18:32:30.249Z,9.80
2022-10-21T18:37:34.318Z,9.80
2022-10-21T18:42:37.543Z,9.80
2022-10-21T18:47:41.570Z,9.80
2022-10-21T18:52:48.018Z,9.80
2022-10-21T18:57:59.805Z,9.90
2022-10-21T19:03:05.655Z,9.90
2022-10-21T19:08:08.528Z,10.00
2022-10-21T19:13:11.337Z,10.00
2022-10-21T19:18:15.379Z,10.10
2022-10-21T19:23:18.168Z,10.10
2022-10-21T19:28:25.809Z,10.10
2022-10-21T19:33:30.031Z,10.00
2022-10-21T19:38:44.680Z,9.90
2022-10-21T19:43:48.804Z,9.90
2022-10-21T19:48:52.207Z,9.90
2022-10-21T19:53:55.949Z,9.80
2022-10-21T19:58:59.534Z,9.80
2022-10-21T20:04:03.510Z,9.80
2022-10-21T20:09:10.043Z,9.60
2022-10-21T20:14:14.014Z,9.50
2022-10-21T20:19:17.848Z,9.40
2022-10-21T20:24:20.635Z,9.30
2022-10-21T20:29:23.430Z,9.40
2022-10-21T20:34:26.737Z,9.50
2022-10-21T20:39:30.715Z,9.60
2022-10-21T20:44:33.364Z,9.60
2022-10-21T20:49:36.090Z,9.70
2022-10-21T20:54:38.559Z,9.60
2022-10-21T20:59:41.043Z,9.60
2022-10-21T21:04:43.578Z,9.60
2022-10-21T21:10:01.679Z,9.50
2022-10-21T21:15:21.036Z,9.50
2022-10-21T21:20:23.576Z,9.60
2022-10-21T21:25:25.924Z,9.70
2022-10-21T21:30:28.417Z,9.70
2022-10-21T21:35:30.798Z,9.80
2022-10-21T21:40:33.897Z,9.70
2022-10-21T21:45:36.340Z,9.70
2022-10-21T21:50:40.120Z,9.80
2022-10-21T21:55:43.203Z,9.80
2022-10-21T22:00:45.571Z,9.80
2022-10-21T22:05:48.079Z,9.90
2022-10-21T22:10:50.461Z,9.90
2022-10-21T22:15:52.819Z,9.90
2022-10-21T22:20:59.036Z,9.90
2022-10-21T22:26:01.495Z,9.80
2022-10-21T22:31:11.842Z,9.90
2022-10-21T22:36:16.505Z,9.90
2022-10-21T22:41:19.213Z,9.90
2022-10-21T22:46:32.979Z,9.80
2022-10-21T22:51:36.233Z,9.90
2022-10-21T22:56:38.777Z,9.90
2022-10-21T23:01:41.451Z,9.70
2022-10-21T23:06:43.886Z,9.70
2022-10-21T23:11:47.237Z,9.70
2022-10-21T23:16:49.671Z,9.70
2022-10-21T23:21:52.066Z,9.70
2022-10-21T23:26:59.022Z,9.80
2022-10-21T23:32:04.281Z,9.70
2022-10-21T23:37:06.935Z,9.80
2022-10-21T23:42:09.454Z,9.70
2022-10-21T23:47:12.044Z,9.10
2022-10-21T23:52:14.474Z,9.70
2022-10-21T23:57:16.859Z,9.70
